Last 30 Days

Bell Hill-West

Daily Data | America/Los_Angeles
as of 5/18/21 3:59 PM PDT
Date Daily Max Temp (°F) Time of Max Temp Daily Min Temp (°F) Time of Min Temp Daily Rain (In) Monthly Rain (In) Seasonal Rainfall (In) Wind Spd (mph) Daily Max Wind (mph) Time of Max Wind Max Wind Dir (°) Daily ETo (in) 7 Day ETo (in) Daily Solar Rad (Cal/cm2) Dew Pt (°F) Max RH (%) Min RH (%) Hrs 70-85F (hrs) Hrs > 95F (hrs) Powdery Mildew Stress (pts) GDDs (DL) GDDs (Mx/Mn) Seas GDDs (DL) Seas GDDs (Smpl) Hrs <= 32F (hrs) Hrs <= 28F (hrs) Chilling <=45F (hrs) Chill Hrs 32-45F (hrs) Utah Chilling (Units) Degree Hrs (hrs) Max 1 Min Rain (In) Max 1 Min Rain Time Max 15 Min Rain (In) Max 15 Min Precip Time Max 60 Min Rain (In) Max 60 Min Rain Time Bat Volt Min Day (V)
5/17/21 79.4 1458 44.4 0606 0.00 0.00 10.75 4.7 19.8 1739 W | 273 0.257 1.79 771 42.5 88 18 8.15 0.00 100 13.4 11.9 494 377 0.0 0.0 0.5 0.5 0.0 88.6 - - - - - - 12.3
5/16/21 82.4 1233 48.4 0614 0.00 0.00 10.75 4.1 18.2 1329 WSW | 244 0.252 1.79 751 48.6 89 24 9.83 0.00 90 15.6 15.4 480 365 0.0 0.0 0.0 0.0 0.0 121.3 - - - - - - 12.3
5/15/21 80.3 1353 45.2 0606 0.00 0.00 10.75 2.6 17.2 1359 WSW | 254 0.192 1.78 588 47.2 87 23 5.65 0.00 70 13.2 12.7 465 350 0.0 0.0 0.0 0.0 0.0 82.3 - - - - - - 12.3
5/14/21 84.2 1330 47.8 0618 0.00 0.00 10.75 5.0 19.8 1449 W | 259 0.268 1.84 761 42.6 78 17 9.61 0.00 80 15.1 16.0 451 337 0.0 0.0 0.0 0.0 1.0 134.2 - - - - - - 12.3
5/13/21 88.4 1321 46.8 0633 0.00 0.00 10.75 3.7 16.5 1548 SW | 227 0.271 1.80 765 40.4 74 12 3.96 0.00 60 18.8 17.6 436 321 0.0 0.0 0.0 0.0 0.0 204.4 - - - - - - 12.2
5/12/21 87.7 1533 45.7 0544 0.00 0.00 10.75 4.2 14.8 1317 S | 178 0.284 1.77 763 36.3 73 8 3.25 0.00 70 18.5 16.7 418 304 0.0 0.0 0.0 0.0 0.0 205.4 - - - - - - 12.3
5/11/21 88.6 1540 45.0 0612 0.00 0.00 10.75 3.6 14.8 1610 SSE | 164 0.270 1.76 760 34.1 75 11 4.30 0.00 80 17.8 16.8 399 287 0.0 0.0 0.0 0.0 0.5 192.8 - - - - - - 12.3
5/10/21 86.6 1714 42.0 0616 0.00 0.00 10.75 3.1 13.8 1132 NNE | 32 0.256 1.73 775 32.9 90 6 5.79 0.00 90 16.5 14.3 381 270 0.0 0.0 2.8 2.8 0.5 171.7 - - - - - - 12.3
5/9/21 79.4 1355 42.8 0605 0.00 0.00 10.75 3.7 19.2 1640 WSW | 242 0.239 1.72 729 39.1 80 21 8.11 0.00 100 12.5 11.1 365 256 0.0 0.0 2.7 2.7 1.0 93.1 - - - - - - 12.2
5/8/21 82.1 1537 38.9 0627 0.00 0.00 10.75 3.8 20.9 1628 SW | 217 0.254 1.70 746 34.3 90 11 9.07 0.00 90 14.1 10.5 352 245 0.0 0.0 6.2 6.2 0.5 116.4 - - - - - - 12.3
5/7/21 71.9 1531 39.8 0601 0.00 0.00 10.75 3.6 17.5 1546 WSW | 246 0.222 1.68 747 38.3 92 26 3.26 0.00 70 8.1 5.8 338 234 0.0 0.0 4.1 4.1 3.0 29.8 - - - - - - 12.2
5/6/21 73.6 1401 46.2 0615 0.00 0.00 10.75 5.9 19.2 1010 WSW | 247 0.242 1.68 731 36.7 84 22 5.54 0.00 80 11.5 9.9 330 228 0.0 0.0 0.0 0.0 2.0 48.7 - - - - - - 12.3
5/5/21 87.7 1430 45.5 0622 0.00 0.00 10.75 4.5 18.5 1423 SW | 215 0.274 1.68 737 41.5 89 12 3.29 0.00 90 18.0 16.6 318 218 0.0 0.0 0.0 0.0 0.0 185.5 - - - - - - 12.2
5/4/21 82.4 1612 45.2 0636 0.00 0.00 10.75 3.7 15.5 1347 WSW | 246 0.246 1.64 730 42.4 85 20 9.80 0.00 100 14.8 13.8 300 202 0.0 0.0 0.0 0.0 1.0 131.1 - - - - - - 12.3
5/3/21 83.0 1539 42.1 0558 0.00 0.00 10.75 3.5 17.8 1619 WSW | 244 0.239 1.60 726 40.6 94 16 8.81 0.00 100 13.9 12.5 286 188 0.0 0.0 3.8 3.8 0.5 114.3 - - - - - - 12.3
5/2/21 74.9 1415 40.6 0530 0.00 0.00 10.75 4.1 21.2 1624 WSW | 240 0.227 1.50 723 40.5 88 23 6.64 0.00 100 10.5 7.8 272 176 0.0 0.0 3.5 3.5 1.5 56.2 - - - - - - 12.3
5/1/21 74.5 1538 46.0 0632 0.00 0.00 10.75 5.2 18.5 1121 SSW | 197 0.227 1.38 725 44.4 85 32 6.20 0.00 100 11.4 10.2 261 168 0.0 0.0 0.0 0.0 1.5 55.9 - - - - - - 12.3
4/30/21 82.7 1426 41.3 0649 0.00 0.15 10.75 4.0 16.8 1808 SSW | 194 0.223 1.27 639 39.1 81 13 8.90 0.00 80 13.9 12.0 250 158 0.0 0.0 4.3 4.3 0.0 116.9 - - - - - - 12.3
4/29/21 86.1 1430 39.6 0637 0.00 0.15 10.75 3.6 15.5 1826 SSW | 208 0.243 1.26 706 36.3 82 9 3.96 0.00 60 15.1 12.8 236 146 0.0 0.0 5.0 5.0 1.0 152.6 - - - - - - 12.2
4/28/21 81.7 1636 37.3 0637 0.00 0.15 10.75 3.0 16.2 1710 WSW | 257 0.231 1.23 725 34.4 93 13 8.77 0.00 70 12.5 9.5 221 133 0.0 0.0 6.5 6.5 1.5 109.1 - - - - - - 12.3
4/27/21 72.3 1626 33.1 0628 0.00 0.15 10.75 3.2 20.2 1722 SW | 228 0.209 1.22 724 34.8 100 17 2.69 0.00 50 7.9 2.7 208 123 0.0 0.0 8.0 8.0 3.0 30.8 - - - - - - 12.2
4/26/21 60.0 1554 32.2 0604 0.00 0.15 10.75 3.1 16.8 1620 W | 263 0.142 1.19 578 35.8 100 33 0.00 0.00 60 2.3 0.0 200 120 0.0 0.0 10.5 10.5 5.0 0.0 - - - - - - 12.3
4/25/21 56.3 1536 37.2 0058 0.13 0.15 10.75 3.8 18.5 1536 WSW | 242 0.104 1.30 448 39.3 92 42 0.00 0.00 70 0.9 0.0 198 120 0.0 0.0 10.0 10.0 6.0 0.0 0.01 1515 0.04 1122 0.08 1131 12.3
4/24/21 58.4 1516 45.2 0101 0.02 0.02 10.62 5.9 16.8 1340 S | 181 0.116 1.42 423 39.7 84 49 0.00 0.00 80 1.8 1.8 197 120 0.0 0.0 0.0 0.0 5.0 0.0 0.01 1315 0.02 1324 0.02 1409 12.2
4/23/21 74.6 1358 40.3 0610 0.00 0.00 10.60 4.7 21.9 1649 SSW | 195 0.212 1.54 632 36.6 84 15 4.98 0.00 90 9.2 7.5 195 119 0.0 0.0 4.5 4.5 1.5 42.9 - - - - - - 12.3
4/22/21 75.4 1209 39.9 0606 0.00 0.00 10.60 4.8 20.9 1556 SW | 215 0.220 1.54 694 41.3 91 25 6.11 0.00 100 10.5 7.6 186 111 0.0 0.0 6.0 6.0 0.5 52.3 - - - - - - 12.2
4/21/21 76.9 1541 39.4 0631 0.00 0.00 10.60 3.3 15.2 1312 SSW | 203 0.215 1.51 686 38.5 95 13 8.13 0.00 100 10.8 8.2 176 104 0.0 0.0 6.0 6.0 2.0 76.2 - - - - - - 12.3
4/20/21 69.8 1641 38.8 0648 0.00 0.00 10.60 4.2 21.9 1622 N | 7 0.186 1.48 664 40.0 84 34 0.00 0.00 80 7.1 4.3 165 95 0.0 0.0 4.2 4.2 2.0 10.7 - - - - - - 12.3
4/19/21 79.4 1417 41.1 0621 0.00 0.00 10.60 5.3 19.5 1628 SW | 234 0.244 1.50 689 35.4 78 15 8.37 0.00 90 12.4 10.2 158 91 0.0 0.0 2.8 2.8 0.5 91.1 - - - - - - 12.2
4/18/21 83.6 1428 36.8 0612 0.00 0.00 10.60 3.6 22.9 1643 SW | 225 0.234 1.47 686 31.0 84 9 9.48 0.00 70 13.9 10.2 145 81 0.0 0.0 6.7 6.7 1.0 133.4 - - - - - - 12.3
Max 88.6 - 48.4 - 0.13 0.15 - 5.9 22.9 - - 0.284 - 775 48.6 100 49 9.83 0.00 - 18.8 17.6 - - 0.0 0.0 10.5 10.5 6.0 205.4 0.01 - 0.04 - 0.08 - 12.3
Avg - - - - - 0.03 - 4.1 - - - - - - 38.8 - - 5.76 0.00 - 12.1 10.2 - - 0.0 0.0 3.3 3.3 1.4 - - - - - - - -
Min 56.3 - 32.2 - 0.00 0.00 - 2.6 13.8 - - 0.104 - 423 31.0 73 6 0.00 0.00 - 0.9 0.0 - - 0.0 0.0 0.0 0.0 0.0 0.0 0.01 - 0.02 - 0.02 - 12.2
Total - - - - - - - - - - - - - - - - - 172.67 0.00 - 362.2 306.6 - - 0.0 0.0 98.1 98.1 42.0 - - - - - - - -